Time;durP1;ratioP1;P1;durP2;ratioP2;P2;SDS_P1;SDS_P2;PMS_P1;PMS_P2;Temp;Humidity;BMP_temperature;BMP_pressure;BME280_temperature;BME280_humidity;BME280_pressure;Samples;Min_cycle;Max_cycle;Signal;HPM_P1;HPM_P2
2023/09/25 00:01:36;;;;;;;;;;;;;;;;;;5119482;28;19915;-79
2023/09/25 00:04:02;;;;;;;;;;;;;;;;;;5113617;28;19916;-78
2023/09/25 00:06:29;;;;;;;;;;;;;;;;;;5112600;28;20405;-79
2023/09/25 00:08:55;;;;;;;;;;;;;;;;;;5112398;28;19912;-78
2023/09/25 00:11:21;;;;;;;;;;;;;;;;;;5087487;28;20014;-78
2023/09/25 00:13:47;;;;;;;;;;;;;;;;;;5120729;28;19950;-79
2023/09/25 00:16:13;;;;;;;;;;;;;;;;;;5129382;28;19908;-78
2023/09/25 00:18:39;;;;;;;;;;;;;;;;;;5132794;28;19915;-79
2023/09/25 00:21:05;;;;;;;;;;;;;;;;;;5108245;28;19908;-77
2023/09/25 00:23:31;;;;;;;;;;;;;;;;;;5122100;28;19934;-79
2023/09/25 00:25:57;;;;;;;;;;;;;;;;;;5126441;28;19907;-79
2023/09/25 00:28:23;;;;;;;;;;;;;;;;;;5130014;28;19969;-80
2023/09/25 00:30:49;;;;;;;;;;;;;;;;;;5108244;28;19908;-78
2023/09/25 00:33:15;;;;;;;;;;;;;;;;;;5119174;28;19908;-77
2023/09/25 00:35:41;;;;;;;;;;;;;;;;;;5125395;28;19914;-80
2023/09/25 00:38:07;;;;;;;;;;;;;;;;;;5139772;22;19980;-73
2023/09/25 00:40:33;;;;;;;;;;;;;;;;;;5136720;27;19990;-74
2023/09/25 00:42:59;;;;;;;;;;;;;;;;;;5121139;27;20300;-75
2023/09/25 00:45:25;;;;;;;;;;;;;;;;;;5118964;27;19933;-73
2023/09/25 00:47:51;;;;;;;;;;;;;;;;;;5112322;27;20383;-74
2023/09/25 00:50:17;;;;;;;;;;;;;;;;;;5113592;28;19912;-73
2023/09/25 00:52:43;;;;;;;;;;;;;;;;;;5106711;28;19912;-74
2023/09/25 00:55:09;;;;;;;;;;;;;;;;;;5106040;28;19908;-75
2023/09/25 00:57:35;;;;;;;;;;;;;;;;;;5113923;28;19915;-75
2023/09/25 01:00:01;;;;;;;;;;;;;;;;;;5099996;28;19933;-75
2023/09/25 01:02:27;;;;;;;;;;;;;;;;;;5112369;28;19962;-75
2023/09/25 01:04:52;;;;;;;;;;;;;;;;;;5107809;28;20423;-75
2023/09/25 01:07:18;;;;;;;;;;;;;;;;;;5104813;28;19908;-75
2023/09/25 01:09:44;;;;;;;;;;;;;;;;;;5114872;28;19912;-75
2023/09/25 01:12:10;;;;;;;;;;;;;;;;;;5101895;28;19915;-72
2023/09/25 01:14:36;;;;;;;;;;;;;;;;;;5110381;28;19908;-74
2023/09/25 01:17:02;;;;;;;;;;;;;;;;;;5109089;28;19915;-74
2023/09/25 01:19:28;;;;;;;;;;;;;;;;;;5102139;28;19914;-75
2023/09/25 01:21:54;;;;;;;;;;;;;;;;;;5114964;28;19951;-74
2023/09/25 01:24:20;;;;;;;;;;;;;;;;;;5106743;28;19908;-76
2023/09/25 01:26:46;;;;;;;;;;;;;;;;;;5108039;28;19985;-74
2023/09/25 01:29:12;;;;;;;;;;;;;;;;;;5105405;28;19998;-72
2023/09/25 01:31:38;;;;;;;;;;;;;;;;;;5114983;28;19985;-73
2023/09/25 01:34:04;;;;;;;;;;;;;;;;;;5098230;28;20310;-77
2023/09/25 01:36:30;;;;;;;;;;;;;;;;;;5102305;28;19938;-77
2023/09/25 01:38:56;;;;;;;;;;;;;;;;;;5105849;28;20015;-78
2023/09/25 01:41:22;;;;;;;;;;;;;;;;;;5113366;28;19907;-76
2023/09/25 01:43:48;;;;;;;;;;;;;;;;;;5104789;28;19908;-77
2023/09/25 01:46:14;;;;;;;;;;;;;;;;;;5099316;28;20378;-77
2023/09/25 01:48:40;;;;;;;;;;;;;;;;;;5107410;28;19912;-77
2023/09/25 01:51:07;;;;;;;;;;;;;;;;;;5096520;28;19990;-75
2023/09/25 01:53:34;;;;;;;;;;;;;;;;;;5109835;28;19917;-75
2023/09/25 01:55:59;;;;;;;;;;;;;;;;;;5097492;28;19909;-73
2023/09/25 01:58:25;;;;;;;;;;;;;;;;;;5108249;28;19931;-73
2023/09/25 02:00:51;;;;;;;;;;;;;;;;;;5103906;28;19908;-74
2023/09/25 02:03:17;;;;;;;;;;;;;;;;;;5101093;28;19916;-73
2023/09/25 02:05:43;;;;;;;;;;;;;;;;;;5110932;28;20399;-74
2023/09/25 02:08:09;;;;;;;;;;;;;;;;;;5103851;28;19918;-75
2023/09/25 02:10:35;;;;;;;;;;;;;;;;;;5115061;28;19990;-74
2023/09/25 02:13:01;;;;;;;;;;;;;;;;;;5113551;28;19994;-74
2023/09/25 02:15:27;;;;;;;;;;;;;;;;;;5107215;28;19987;-74
2023/09/25 02:17:53;;;;;;;;;;;;;;;;;;5113871;28;19908;-74
2023/09/25 02:20:20;;;;;;;;;;;;;;;;;;5106855;28;19908;-74
2023/09/25 02:22:46;;;;;;;;;;;;;;;;;;5103957;28;19915;-73
2023/09/25 02:25:12;;;;;;;;;;;;;;;;;;5112748;28;19961;-73
2023/09/25 02:27:41;;;;;;;;;;;;;;;;;;5097450;28;20331;-74
2023/09/25 02:30:07;;;;;;;;;;;;;;;;;;5097031;28;20332;-74
2023/09/25 02:32:33;;;;;;;;;;;;;;;;;;5106747;28;19954;-73
2023/09/25 02:34:59;;;;;;;;;;;;;;;;;;5104117;28;19908;-73
2023/09/25 02:37:25;;;;;;;;;;;;;;;;;;5099357;28;20311;-74
2023/09/25 02:39:51;;;;;;;;;;;;;;;;;;5110213;28;19943;-73
2023/09/25 02:42:16;;;;;;;;;;;;;;;;;;5108381;28;19946;-74
2023/09/25 02:44:42;;;;;;;;;;;;;;;;;;5100440;28;19911;-73
2023/09/25 02:47:09;;;;;;;;;;;;;;;;;;5101757;28;20391;-74
2023/09/25 02:49:34;;;;;;;;;;;;;;;;;;5109337;28;19919;-73
2023/09/25 02:52:00;;;;;;;;;;;;;;;;;;5102905;28;19908;-74
2023/09/25 02:54:26;;;;;;;;;;;;;;;;;;5104869;28;20275;-73
2023/09/25 02:56:52;;;;;;;;;;;;;;;;;;5111892;28;19995;-74
2023/09/25 02:59:18;;;;;;;;;;;;;;;;;;5093175;28;20287;-73
2023/09/25 03:01:46;;;;;;;;;;;;;;;;;;5102861;28;19915;-75
2023/09/25 03:04:12;;;;;;;;;;;;;;;;;;5105830;28;19908;-75
2023/09/25 03:06:38;;;;;;;;;;;;;;;;;;5105779;28;19954;-74
2023/09/25 03:09:04;;;;;;;;;;;;;;;;;;5104530;28;19926;-74
2023/09/25 03:11:31;;;;;;;;;;;;;;;;;;5102658;28;19912;-75
2023/09/25 03:13:57;;;;;;;;;;;;;;;;;;5109654;28;19918;-74
2023/09/25 03:16:23;;;;;;;;;;;;;;;;;;5100377;28;19915;-75
2023/09/25 03:18:50;;;;;;;;;;;;;;;;;;5102041;28;19911;-76
2023/09/25 03:21:16;;;;;;;;;;;;;;;;;;5100100;28;19908;-77
2023/09/25 03:23:42;;;;;;;;;;;;;;;;;;5109244;28;20394;-73
2023/09/25 03:26:08;;;;;;;;;;;;;;;;;;5096357;28;19916;-75
2023/09/25 03:28:34;;;;;;;;;;;;;;;;;;5105068;28;20382;-74
2023/09/25 03:30:59;;;;;;;;;;;;;;;;;;5112012;28;19947;-75
2023/09/25 03:33:27;;;;;;;;;;;;;;;;;;5103532;28;19908;-74
2023/09/25 03:35:53;;;;;;;;;;;;;;;;;;5110487;28;19908;-74
2023/09/25 03:38:19;;;;;;;;;;;;;;;;;;5097324;28;19922;-74
2023/09/25 03:40:45;;;;;;;;;;;;;;;;;;5105169;28;19916;-74
2023/09/25 03:43:11;;;;;;;;;;;;;;;;;;5105869;28;19915;-75
2023/09/25 03:45:37;;;;;;;;;;;;;;;;;;5098030;28;19912;-74
2023/09/25 03:48:03;;;;;;;;;;;;;;;;;;5110468;28;19931;-75
2023/09/25 03:50:29;;;;;;;;;;;;;;;;;;5103476;28;19919;-76
2023/09/25 03:52:58;;;;;;;;;;;;;;;;;;5112728;28;19915;-76
2023/09/25 03:55:23;;;;;;;;;;;;;;;;;;5106691;28;19915;-75
2023/09/25 03:57:49;;;;;;;;;;;;;;;;;;5111841;28;19915;-73
2023/09/25 04:00:16;;;;;;;;;;;;;;;;;;5104605;28;19908;-75
2023/09/25 04:02:42;;;;;;;;;;;;;;;;;;5112527;28;19963;-77
2023/09/25 04:05:08;;;;;;;;;;;;;;;;;;5103798;28;19915;-76
2023/09/25 04:07:34;;;;;;;;;;;;;;;;;;5096244;28;19958;-75
2023/09/25 04:10:02;;;;;;;;;;;;;;;;;;5108620;28;19947;-75
2023/09/25 04:12:29;;;;;;;;;;;;;;;;;;5097960;28;19912;-75
2023/09/25 04:14:55;;;;;;;;;;;;;;;;;;5110178;28;19914;-76
2023/09/25 04:17:21;;;;;;;;;;;;;;;;;;5105306;28;19916;-74
2023/09/25 04:19:48;;;;;;;;;;;;;;;;;;5107109;28;20451;-75
2023/09/25 04:22:14;;;;;;;;;;;;;;;;;;5099480;28;20411;-77
2023/09/25 04:24:40;;;;;;;;;;;;;;;;;;5099498;28;19934;-75
2023/09/25 04:27:06;;;;;;;;;;;;;;;;;;5102051;28;19908;-76
2023/09/25 04:29:31;;;;;;;;;;;;;;;;;;5108632;28;19924;-78
2023/09/25 04:31:57;;;;;;;;;;;;;;;;;;5095733;28;19912;-77
2023/09/25 04:34:23;;;;;;;;;;;;;;;;;;5103463;28;19956;-73
2023/09/25 04:36:49;;;;;;;;;;;;;;;;;;5111361;28;19995;-75
2023/09/25 04:39:16;;;;;;;;;;;;;;;;;;5103780;28;19916;-75
2023/09/25 04:41:42;;;;;;;;;;;;;;;;;;5119192;28;19953;-75
2023/09/25 04:44:08;;;;;;;;;;;;;;;;;;5123487;28;19928;-77
2023/09/25 04:46:34;;;;;;;;;;;;;;;;;;5108617;28;19912;-77
2023/09/25 04:49:02;;;;;;;;;;;;;;;;;;5102901;28;19912;-77
2023/09/25 04:51:28;;;;;;;;;;;;;;;;;;5106666;28;19999;-75
2023/09/25 04:53:56;;;;;;;;;;;;;;;;;;5110125;28;19912;-78
2023/09/25 04:56:22;;;;;;;;;;;;;;;;;;5106677;28;19931;-79
2023/09/25 04:58:48;;;;;;;;;;;;;;;;;;5100984;28;20032;-77
2023/09/25 05:01:14;;;;;;;;;;;;;;;;;;5106233;28;19915;-81
2023/09/25 05:03:40;;;;;;;;;;;;;;;;;;5102682;28;20325;-77
2023/09/25 05:06:06;;;;;;;;;;;;;;;;;;5094857;28;19907;-72
2023/09/25 05:08:32;;;;;;;;;;;;;;;;;;5109903;28;19919;-73
2023/09/25 05:10:58;;;;;;;;;;;;;;;;;;5104566;28;20295;-72
2023/09/25 05:13:24;;;;;;;;;;;;;;;;;;5110759;28;19952;-78
2023/09/25 05:15:50;;;;;;;;;;;;;;;;;;5113979;28;20391;-77
2023/09/25 05:18:15;;;;;;;;;;;;;;;;;;5105216;28;19908;-77
2023/09/25 05:20:41;;;;;;;;;;;;;;;;;;5107388;28;19908;-77
2023/09/25 05:23:07;;;;;;;;;;;;;;;;;;5094760;28;20359;-78
2023/09/25 05:25:33;;;;;;;;;;;;;;;;;;5109466;28;19934;-76
2023/09/25 05:27:59;;;;;;;;;;;;;;;;;;5098525;28;19908;-79
2023/09/25 05:30:25;;;;;;;;;;;;;;;;;;5109542;28;20499;-78
2023/09/25 05:32:51;;;;;;;;;;;;;;;;;;5104631;28;19961;-76
2023/09/25 05:35:17;;;;;;;;;;;;;;;;;;5101514;28;19999;-76
2023/09/25 05:37:45;;;;;;;;;;;;;;;;;;5104228;28;19927;-76
2023/09/25 05:40:11;;;;;;;;;;;;;;;;;;5113182;27;19952;-75
2023/09/25 05:42:40;;;;;;;;;;;;;;;;;;5106310;28;19927;-77
2023/09/25 05:45:06;;;;;;;;;;;;;;;;;;5109233;28;19929;-75
2023/09/25 05:47:32;;;;;;;;;;;;;;;;;;5114003;28;20387;-76
2023/09/25 05:49:58;;;;;;;;;;;;;;;;;;5098081;28;20383;-77
2023/09/25 05:52:24;;;;;;;;;;;;;;;;;;5107641;28;19914;-73
2023/09/25 05:54:51;;;;;;;;;;;;;;;;;;5104743;28;20396;-72
2023/09/25 05:57:16;;;;;;;;;;;;;;;;;;5106786;28;19908;-73
2023/09/25 05:59:43;;;;;;;;;;;;;;;;;;5096537;28;19935;-72
2023/09/25 06:02:09;;;;;;;;;;;;;;;;;;5110786;28;20290;-73
2023/09/25 06:04:37;;;;;;;;;;;;;;;;;;5101652;28;19943;-73
2023/09/25 06:07:03;;;;;;;;;;;;;;;;;;5102065;28;19909;-72
2023/09/25 06:09:29;;;;;;;;;;;;;;;;;;5108657;28;19911;-72
2023/09/25 06:11:55;;;;;;;;;;;;;;;;;;5097544;28;20363;-72
2023/09/25 06:14:21;;;;;;;;;;;;;;;;;;5103988;28;20014;-72
2023/09/25 06:16:48;;;;;;;;;;;;;;;;;;5101587;28;19967;-73
2023/09/25 06:19:14;;;;;;;;;;;;;;;;;;5100683;28;20364;-72
2023/09/25 06:21:40;;;;;;;;;;;;;;;;;;5110396;28;19952;-72
2023/09/25 06:24:09;;;;;;;;;;;;;;;;;;5094567;28;20002;-72
2023/09/25 06:26:35;;;;;;;;;;;;;;;;;;5106788;28;19908;-72
2023/09/25 06:29:01;;;;;;;;;;;;;;;;;;5104020;28;19912;-72
2023/09/25 06:31:27;;;;;;;;;;;;;;;;;;5099135;28;19908;-72
2023/09/25 06:33:53;;;;;;;;;;;;;;;;;;5106951;28;19908;-71
2023/09/25 06:36:19;;;;;;;;;;;;;;;;;;5098291;28;19912;-73
2023/09/25 06:38:48;;;;;;;;;;;;;;;;;;5112681;22;19928;-74
2023/09/25 06:41:14;;;;;;;;;;;;;;;;;;5088459;28;19917;-75
2023/09/25 06:43:40;;;;;;;;;;;;;;;;;;5071341;28;19931;-76
2023/09/25 06:46:06;;;;;;;;;;;;;;;;;;5081259;28;19914;-75
2023/09/25 06:48:32;;;;;;;;;;;;;;;;;;5080134;28;20049;-75
2023/09/25 06:50:58;;;;;;;;;;;;;;;;;;5073799;28;19908;-76
2023/09/25 06:53:26;;;;;;;;;;;;;;;;;;5085032;28;19916;-75
2023/09/25 06:55:52;;;;;;;;;;;;;;;;;;5079545;28;19915;-75
2023/09/25 06:58:18;;;;;;;;;;;;;;;;;;5075443;28;19908;-74
2023/09/25 07:00:45;;;;;;;;;;;;;;;;;;5092023;28;19965;-73
2023/09/25 07:03:11;;;;;;;;;;;;;;;;;;5091360;28;20034;-71
2023/09/25 07:05:36;;;;;;;;;;;;;;;;;;5091106;28;20574;-71
2023/09/25 07:08:03;;;;;;;;;;;;;;;;;;5087547;28;19944;-72
2023/09/25 07:10:30;;;;;;;;;;;;;;;;;;5072232;28;19912;-71
2023/09/25 07:12:56;;;;;;;;;;;;;;;;;;5070181;28;19915;-70
2023/09/25 07:15:22;;;;;;;;;;;;;;;;;;5071358;28;19919;-73
2023/09/25 07:17:48;;;;;;;;;;;;;;;;;;5072465;28;19908;-71
2023/09/25 07:20:14;;;;;;;;;;;;;;;;;;5072083;28;19917;-71
2023/09/25 07:22:41;;;;;;;;;;;;;;;;;;5072188;28;19908;-71
2023/09/25 07:25:07;;;;;;;;;;;;;;;;;;5072251;28;19944;-71
2023/09/25 07:27:33;;;;;;;;;;;;;;;;;;5072409;28;19928;-72
2023/09/25 07:30:01;;;;;;;;;;;;;;;;;;5072262;28;19912;-72
2023/09/25 07:32:28;;;;;;;;;;;;;;;;;;5071696;28;19908;-71
2023/09/25 07:34:54;;;;;;;;;;;;;;;;;;5072100;28;20003;-71
2023/09/25 07:37:20;;;;;;;;;;;;;;;;;;5072372;28;20371;-70
2023/09/25 07:39:46;;;;;;;;;;;;;;;;;;5071707;28;19923;-71
2023/09/25 07:42:12;;;;;;;;;;;;;;;;;;5070401;28;19916;-71
2023/09/25 07:44:38;;;;;;;;;;;;;;;;;;5071650;28;19909;-71
2023/09/25 07:47:10;;;;;;;;;;;;;;;;;;5072246;28;20006;-71
2023/09/25 07:49:44;;;;;;;;;;;;;;;;;;5072048;28;19913;-71
2023/09/25 07:52:15;;;;;;;;;;;;;;;;;;5072096;28;19919;-71
2023/09/25 07:54:41;;;;;;;;;;;;;;;;;;5071960;28;19944;-72
2023/09/25 07:57:07;;;;;;;;;;;;;;;;;;5071996;28;19915;-70
2023/09/25 07:59:33;;;;;;;;;;;;;;;;;;5070358;28;20049;-71
2023/09/25 08:01:59;;;;;;;;;;;;;;;;;;5070225;28;19939;-72
2023/09/25 08:04:25;;;;;;;;;;;;;;;;;;5070166;28;20039;-71
2023/09/25 08:06:51;;;;;;;;;;;;;;;;;;5069849;28;19908;-70
2023/09/25 08:09:19;;;;;;;;;;;;;;;;;;5069641;28;20423;-70
2023/09/25 08:11:45;;;;;;;;;;;;;;;;;;5070157;28;20295;-70
2023/09/25 08:14:11;;;;;;;;;;;;;;;;;;5069659;28;19908;-71
2023/09/25 08:16:37;;;;;;;;;;;;;;;;;;5070536;28;19924;-71
2023/09/25 08:19:03;;;;;;;;;;;;;;;;;;5062526;28;19920;-71
2023/09/25 08:21:30;;;;;;;;;;;;;;;;;;5071710;28;20391;-71
2023/09/25 08:23:56;;;;;;;;;;;;;;;;;;5071846;28;19916;-70
2023/09/25 08:26:22;;;;;;;;;;;;;;;;;;5071743;28;19909;-71
2023/09/25 08:28:47;;;;;;;;;;;;;;;;;;5071384;28;19912;-72
2023/09/25 08:31:13;;;;;;;;;;;;;;;;;;5070229;28;19950;-70
2023/09/25 08:33:40;;;;;;;;;;;;;;;;;;5069935;28;20352;-71
2023/09/25 08:36:06;;;;;;;;;;;;;;;;;;5071568;28;20587;-70
2023/09/25 08:38:32;;;;;;;;;;;;;;;;;;5071462;28;19909;-71
2023/09/25 08:40:58;;;;;;;;;;;;;;;;;;5071604;28;19919;-71
2023/09/25 08:43:26;;;;;;;;;;;;;;;;;;5073233;28;20371;-70
2023/09/25 08:45:52;;;;;;;;;;;;;;;;;;5075741;28;19909;-70
2023/09/25 08:48:18;;;;;;;;;;;;;;;;;;5075387;28;19908;-71
2023/09/25 08:50:44;;;;;;;;;;;;;;;;;;5075335;28;20438;-71
2023/09/25 08:53:10;;;;;;;;;;;;;;;;;;5074168;28;19916;-71
2023/09/25 08:55:35;;;;;;;;;;;;;;;;;;5075158;28;19908;-71
2023/09/25 08:58:01;;;;;;;;;;;;;;;;;;5075314;28;20295;-70
2023/09/25 09:00:27;;;;;;;;;;;;;;;;;;5073993;28;19908;-72
2023/09/25 09:02:53;;;;;;;;;;;;;;;;;;5075169;28;19919;-72
2023/09/25 09:05:19;;;;;;;;;;;;;;;;;;5074649;28;19908;-73
2023/09/25 09:07:45;;;;;;;;;;;;;;;;;;5075138;28;19913;-71
2023/09/25 09:10:11;;;;;;;;;;;;;;;;;;5075101;28;19956;-71
2023/09/25 09:12:37;;;;;;;;;;;;;;;;;;5075160;28;20397;-70
2023/09/25 09:15:03;;;;;;;;;;;;;;;;;;5074777;28;19916;-71
2023/09/25 09:17:29;;;;;;;;;;;;;;;;;;5075125;28;20277;-71
2023/09/25 09:19:55;;;;;;;;;;;;;;;;;;5074934;28;19954;-71
2023/09/25 09:22:21;;;;;;;;;;;;;;;;;;5074749;28;19908;-70
2023/09/25 09:24:47;;;;;;;;;;;;;;;;;;5074664;28;19915;-70
2023/09/25 09:27:14;;;;;;;;;;;;;;;;;;5073438;28;20317;-71
2023/09/25 09:29:40;;;;;;;;;;;;;;;;;;5074787;28;19965;-71
2023/09/25 09:32:06;;;;;;;;;;;;;;;;;;5074471;28;19916;-70
2023/09/25 09:34:32;;;;;;;;;;;;;;;;;;5072864;28;19947;-70
2023/09/25 09:36:58;;;;;;;;;;;;;;;;;;5074500;28;20375;-71
2023/09/25 09:39:27;;;;;;;;;;;;;;;;;;5074078;28;19978;-71
2023/09/25 09:41:53;;;;;;;;;;;;;;;;;;5074605;28;20375;-71
2023/09/25 09:44:18;;;;;;;;;;;;;;;;;;5074342;28;19976;-71
2023/09/25 09:46:46;;;;;;;;;;;;;;;;;;5074195;28;20310;-72
2023/09/25 09:49:12;;;;;;;;;;;;;;;;;;5074428;28;19912;-71
2023/09/25 09:51:39;;;;;;;;;;;;;;;;;;5074080;28;20427;-71
2023/09/25 09:54:06;;;;;;;;;;;;;;;;;;5073698;28;19923;-73
2023/09/25 09:56:32;;;;;;;;;;;;;;;;;;5074014;28;19916;-72
2023/09/25 09:58:58;;;;;;;;;;;;;;;;;;5074212;28;19909;-72
2023/09/25 10:01:24;;;;;;;;;;;;;;;;;;5074132;28;19912;-71
2023/09/25 10:03:50;;;;;;;;;;;;;;;;;;5072734;28;19916;-71
2023/09/25 10:06:16;;;;;;;;;;;;;;;;;;5074337;28;20305;-71
2023/09/25 10:08:42;;;;;;;;;;;;;;;;;;5073965;28;19912;-71
2023/09/25 10:11:08;;;;;;;;;;;;;;;;;;5074107;28;20353;-71
2023/09/25 10:13:34;;;;;;;;;;;;;;;;;;5073546;28;20011;-71
2023/09/25 10:16:00;;;;;;;;;;;;;;;;;;5073887;28;19908;-72
2023/09/25 10:18:26;;;;;;;;;;;;;;;;;;5073990;28;20318;-73
2023/09/25 10:20:52;;;;;;;;;;;;;;;;;;5073773;28;19913;-71
2023/09/25 10:23:17;;;;;;;;;;;;;;;;;;5073265;28;20265;-71
2023/09/25 10:25:43;;;;;;;;;;;;;;;;;;5073630;28;20096;-71
2023/09/25 10:28:09;;;;;;;;;;;;;;;;;;5073502;28;19939;-70
2023/09/25 10:30:35;;;;;;;;;;;;;;;;;;5073802;28;19948;-71
2023/09/25 10:33:02;;;;;;;;;;;;;;;;;;5071996;28;19909;-71
2023/09/25 10:35:27;;;;;;;;;;;;;;;;;;5071960;28;20011;-71
2023/09/25 10:37:53;;;;;;;;;;;;;;;;;;5073394;28;20436;-71
2023/09/25 10:40:19;;;;;;;;;;;;;;;;;;5073237;28;19917;-69
2023/09/25 10:42:45;;;;;;;;;;;;;;;;;;5073220;28;19962;-70
2023/09/25 10:45:12;;;;;;;;;;;;;;;;;;5072936;28;19956;-71
2023/09/25 10:47:38;;;;;;;;;;;;;;;;;;5073052;28;19999;-70
2023/09/25 10:50:03;;;;;;;;;;;;;;;;;;5073119;28;19999;-71
2023/09/25 10:52:29;;;;;;;;;;;;;;;;;;5071890;28;19989;-71
2023/09/25 10:54:55;;;;;;;;;;;;;;;;;;5064196;28;19967;-70
2023/09/25 10:57:21;;;;;;;;;;;;;;;;;;5053403;28;19952;-70
2023/09/25 10:59:47;;;;;;;;;;;;;;;;;;5053063;28;19911;-70
2023/09/25 11:02:13;;;;;;;;;;;;;;;;;;5051611;28;20291;-70
2023/09/25 11:04:39;;;;;;;;;;;;;;;;;;5052548;28;19909;-71
2023/09/25 11:07:05;;;;;;;;;;;;;;;;;;5051528;28;19963;-72
2023/09/25 11:09:30;;;;;;;;;;;;;;;;;;5052691;28;20446;-70
2023/09/25 11:11:57;;;;;;;;;;;;;;;;;;5053068;28;19908;-71
2023/09/25 11:14:23;;;;;;;;;;;;;;;;;;5052543;28;20008;-70
2023/09/25 11:16:49;;;;;;;;;;;;;;;;;;5051099;28;19958;-71
2023/09/25 11:19:15;;;;;;;;;;;;;;;;;;5052567;28;20264;-71
2023/09/25 11:21:41;;;;;;;;;;;;;;;;;;5052616;28;19962;-72
2023/09/25 11:24:07;;;;;;;;;;;;;;;;;;5052218;28;19909;-72
2023/09/25 11:26:33;;;;;;;;;;;;;;;;;;5052465;28;19939;-71
2023/09/25 11:28:59;;;;;;;;;;;;;;;;;;5052166;28;20373;-71
2023/09/25 11:31:25;;;;;;;;;;;;;;;;;;5052534;28;19915;-71
2023/09/25 11:33:51;;;;;;;;;;;;;;;;;;5052172;28;19909;-71
2023/09/25 11:36:16;;;;;;;;;;;;;;;;;;5052333;28;19909;-71
2023/09/25 11:38:43;;;;;;;;;;;;;;;;;;5053338;28;19974;-71
2023/09/25 11:41:10;;;;;;;;;;;;;;;;;;5071849;28;19917;-71
2023/09/25 11:43:36;;;;;;;;;;;;;;;;;;5071545;28;19962;-71
2023/09/25 11:46:04;;;;;;;;;;;;;;;;;;5072115;28;19908;-72
2023/09/25 11:48:30;;;;;;;;;;;;;;;;;;5072023;28;20379;-72
2023/09/25 11:50:57;;;;;;;;;;;;;;;;;;5072029;28;19909;-71
2023/09/25 11:53:23;;;;;;;;;;;;;;;;;;5071891;28;19904;-74
2023/09/25 11:55:49;;;;;;;;;;;;;;;;;;5072040;28;20494;-71
2023/09/25 11:58:15;;;;;;;;;;;;;;;;;;5070494;28;20045;-70
2023/09/25 12:00:41;;;;;;;;;;;;;;;;;;5072197;28;19959;-72
2023/09/25 12:03:08;;;;;;;;;;;;;;;;;;5071946;28;20433;-71
2023/09/25 12:05:35;;;;;;;;;;;;;;;;;;5070571;28;20386;-71
2023/09/25 12:08:01;;;;;;;;;;;;;;;;;;5071805;28;19990;-72
2023/09/25 12:10:27;;;;;;;;;;;;;;;;;;5070196;28;19997;-74
2023/09/25 12:12:53;;;;;;;;;;;;;;;;;;5071758;28;19908;-72
2023/09/25 12:15:19;;;;;;;;;;;;;;;;;;5070601;28;20581;-72
2023/09/25 12:17:44;;;;;;;;;;;;;;;;;;5069702;28;19912;-71
2023/09/25 12:20:14;;;;;;;;;;;;;;;;;;5071778;28;19954;-71
2023/09/25 12:22:40;;;;;;;;;;;;;;;;;;5072826;28;19912;-71
2023/09/25 12:25:06;;;;;;;;;;;;;;;;;;5072409;28;19915;-71
2023/09/25 12:27:32;;;;;;;;;;;;;;;;;;5071791;28;19909;-71
2023/09/25 12:29:58;;;;;;;;;;;;;;;;;;5070326;28;20358;-71
2023/09/25 12:32:24;;;;;;;;;;;;;;;;;;5070360;28;20012;-71
2023/09/25 12:34:50;;;;;;;;;;;;;;;;;;5071323;28;20371;-72
2023/09/25 12:37:16;;;;;;;;;;;;;;;;;;5071237;28;19909;-71
2023/09/25 12:39:42;;;;;;;;;;;;;;;;;;5071952;28;20221;-70
2023/09/25 12:42:09;;;;;;;;;;;;;;;;;;5071764;28;19908;-70
2023/09/25 12:44:35;;;;;;;;;;;;;;;;;;5071314;28;19920;-71
2023/09/25 12:47:02;;;;;;;;;;;;;;;;;;5071441;28;19908;-71
2023/09/25 12:49:28;;;;;;;;;;;;;;;;;;5071237;28;19913;-71
2023/09/25 12:51:54;;;;;;;;;;;;;;;;;;5071495;28;20003;-72
2023/09/25 12:54:20;;;;;;;;;;;;;;;;;;5071382;28;19930;-71
2023/09/25 12:56:46;;;;;;;;;;;;;;;;;;5071572;28;19915;-72
2023/09/25 12:59:11;;;;;;;;;;;;;;;;;;5071061;28;19916;-72
2023/09/25 13:01:37;;;;;;;;;;;;;;;;;;5071025;28;19918;-72
2023/09/25 13:04:03;;;;;;;;;;;;;;;;;;5071146;28;19939;-71
2023/09/25 13:06:31;;;;;;;;;;;;;;;;;;5071671;28;19908;-71
2023/09/25 13:08:57;;;;;;;;;;;;;;;;;;5071133;28;19916;-72
2023/09/25 13:11:23;;;;;;;;;;;;;;;;;;5071079;28;20348;-71
2023/09/25 13:13:49;;;;;;;;;;;;;;;;;;5069628;28;19995;-72
2023/09/25 13:16:15;;;;;;;;;;;;;;;;;;5071029;28;19947;-71
2023/09/25 13:18:41;;;;;;;;;;;;;;;;;;5069893;28;20376;-72
2023/09/25 13:21:07;;;;;;;;;;;;;;;;;;5071441;28;19909;-72
2023/09/25 13:23:35;;;;;;;;;;;;;;;;;;5070826;28;19909;-72
2023/09/25 13:26:01;;;;;;;;;;;;;;;;;;5071097;28;19915;-71
2023/09/25 13:28:26;;;;;;;;;;;;;;;;;;5069711;28;19908;-72
2023/09/25 13:30:52;;;;;;;;;;;;;;;;;;5071865;28;20299;-72
2023/09/25 13:33:19;;;;;;;;;;;;;;;;;;5074332;28;19908;-72
2023/09/25 13:35:45;;;;;;;;;;;;;;;;;;5074912;28;19908;-72
2023/09/25 13:38:11;;;;;;;;;;;;;;;;;;5074864;28;19909;-72
2023/09/25 13:40:36;;;;;;;;;;;;;;;;;;5074290;28;19923;-72
2023/09/25 13:43:02;;;;;;;;;;;;;;;;;;5074614;28;19908;-71
2023/09/25 13:45:29;;;;;;;;;;;;;;;;;;5074247;28;19916;-72
2023/09/25 13:47:56;;;;;;;;;;;;;;;;;;5074852;28;19909;-73
2023/09/25 13:50:22;;;;;;;;;;;;;;;;;;5074982;28;19913;-72
2023/09/25 13:52:47;;;;;;;;;;;;;;;;;;5072915;28;19971;-72
2023/09/25 13:55:15;;;;;;;;;;;;;;;;;;5074113;28;19908;-72
2023/09/25 13:57:41;;;;;;;;;;;;;;;;;;5072774;28;19970;-72
2023/09/25 14:00:08;;;;;;;;;;;;;;;;;;5073815;28;19908;-72
2023/09/25 14:02:35;;;;;;;;;;;;;;;;;;5073978;28;19965;-71
2023/09/25 14:05:01;;;;;;;;;;;;;;;;;;5073820;28;19908;-72
2023/09/25 14:07:27;;;;;;;;;;;;;;;;;;5073926;28;19924;-72
2023/09/25 14:09:53;;;;;;;;;;;;;;;;;;5073747;28;20050;-71
2023/09/25 14:12:20;;;;;;;;;;;;;;;;;;5072060;28;19957;-71
2023/09/25 14:14:51;;;;;;;;;;;;;;;;;;5073276;28;19916;-72
2023/09/25 14:17:17;;;;;;;;;;;;;;;;;;5072362;28;20283;-72
2023/09/25 14:19:43;;;;;;;;;;;;;;;;;;5073513;28;19912;-72
2023/09/25 14:22:08;;;;;;;;;;;;;;;;;;5073793;28;19971;-72
2023/09/25 14:24:34;;;;;;;;;;;;;;;;;;5073343;28;20299;-71
2023/09/25 14:27:01;;;;;;;;;;;;;;;;;;5073637;28;19909;-71
2023/09/25 14:29:26;;;;;;;;;;;;;;;;;;5073300;28;19913;-70
2023/09/25 14:31:54;;;;;;;;;;;;;;;;;;5072972;28;21586;-71
2023/09/25 14:34:20;;;;;;;;;;;;;;;;;;5073182;28;19909;-70
2023/09/25 14:36:46;;;;;;;;;;;;;;;;;;5073324;28;20283;-71
2023/09/25 14:39:15;;;;;;;;;;;;;;;;;;5073188;28;19939;-72
2023/09/25 14:41:41;;;;;;;;;;;;;;;;;;5072771;28;20344;-71
2023/09/25 14:44:07;;;;;;;;;;;;;;;;;;5071338;28;19954;-71
2023/09/25 14:46:33;;;;;;;;;;;;;;;;;;5073299;28;20038;-71
2023/09/25 14:48:59;;;;;;;;;;;;;;;;;;5072913;28;19923;-71
2023/09/25 14:51:24;;;;;;;;;;;;;;;;;;5072974;28;19958;-71
2023/09/25 14:53:50;;;;;;;;;;;;;;;;;;5072789;28;19913;-72
2023/09/25 14:56:16;;;;;;;;;;;;;;;;;;5070504;28;20264;-71
2023/09/25 14:58:42;;;;;;;;;;;;;;;;;;5072740;28;19941;-70
2023/09/25 15:01:08;;;;;;;;;;;;;;;;;;5072895;28;19973;-70
2023/09/25 15:03:34;;;;;;;;;;;;;;;;;;5072647;28;20007;-70
2023/09/25 15:06:00;;;;;;;;;;;;;;;;;;5072713;28;19987;-70
2023/09/25 15:08:27;;;;;;;;;;;;;;;;;;5070911;28;19985;-71
2023/09/25 15:10:53;;;;;;;;;;;;;;;;;;5050522;28;20002;-72
2023/09/25 15:13:19;;;;;;;;;;;;;;;;;;5052559;28;19913;-72
2023/09/25 15:15:45;;;;;;;;;;;;;;;;;;5052806;28;19947;-71
2023/09/25 15:18:11;;;;;;;;;;;;;;;;;;5052741;28;19916;-71
2023/09/25 15:20:37;;;;;;;;;;;;;;;;;;5052437;28;19983;-70
2023/09/25 15:23:03;;;;;;;;;;;;;;;;;;5052488;28;19992;-71
2023/09/25 15:25:30;;;;;;;;;;;;;;;;;;5052428;28;20340;-71
2023/09/25 15:27:56;;;;;;;;;;;;;;;;;;5052701;28;19991;-71
2023/09/25 15:30:22;;;;;;;;;;;;;;;;;;5052378;28;20008;-71
2023/09/25 15:32:48;;;;;;;;;;;;;;;;;;5052249;28;20332;-71
2023/09/25 15:35:15;;;;;;;;;;;;;;;;;;5052178;28;19956;-72
2023/09/25 15:37:41;;;;;;;;;;;;;;;;;;5052429;28;19957;-72
2023/09/25 15:40:07;;;;;;;;;;;;;;;;;;5052317;28;19917;-71
2023/09/25 15:42:33;;;;;;;;;;;;;;;;;;5053152;28;19948;-71
2023/09/25 15:44:59;;;;;;;;;;;;;;;;;;5052574;28;19916;-70
2023/09/25 15:47:25;;;;;;;;;;;;;;;;;;5052693;28;19909;-71
2023/09/25 15:49:51;;;;;;;;;;;;;;;;;;5052168;28;19958;-71
2023/09/25 15:52:17;;;;;;;;;;;;;;;;;;5051631;28;19916;-71
2023/09/25 15:54:43;;;;;;;;;;;;;;;;;;5051534;28;19909;-72
2023/09/25 15:57:09;;;;;;;;;;;;;;;;;;5051977;28;19913;-71
2023/09/25 15:59:37;;;;;;;;;;;;;;;;;;5052054;28;20071;-72
2023/09/25 16:02:03;;;;;;;;;;;;;;;;;;5052053;28;19951;-71
2023/09/25 16:04:29;;;;;;;;;;;;;;;;;;5052074;28;19909;-71
2023/09/25 16:06:55;;;;;;;;;;;;;;;;;;5051989;28;19909;-72
2023/09/25 16:09:21;;;;;;;;;;;;;;;;;;5051882;28;20364;-72
2023/09/25 16:11:46;;;;;;;;;;;;;;;;;;5050737;28;19917;-72
2023/09/25 16:14:12;;;;;;;;;;;;;;;;;;5052154;28;19917;-72
2023/09/25 16:16:38;;;;;;;;;;;;;;;;;;5052200;28;19970;-71
2023/09/25 16:19:04;;;;;;;;;;;;;;;;;;5052276;28;19913;-71
2023/09/25 16:21:30;;;;;;;;;;;;;;;;;;5052030;28;20369;-71
2023/09/25 16:23:56;;;;;;;;;;;;;;;;;;5051113;28;19970;-71
2023/09/25 16:26:22;;;;;;;;;;;;;;;;;;5050869;28;19916;-71
2023/09/25 16:28:48;;;;;;;;;;;;;;;;;;5053952;28;19920;-71
2023/09/25 16:31:14;;;;;;;;;;;;;;;;;;5071267;28;19966;-72
2023/09/25 16:33:40;;;;;;;;;;;;;;;;;;5070338;28;19935;-71
2023/09/25 16:36:05;;;;;;;;;;;;;;;;;;5070279;28;19975;-71
2023/09/25 16:38:32;;;;;;;;;;;;;;;;;;5069818;28;20433;-72